createdAt,value
2023-02-11T00:00:51.282Z,2.03
2023-02-11T00:04:52.923Z,3.55
2023-02-11T00:08:55.428Z,1.67
2023-02-11T00:12:56.894Z,4.50
2023-02-11T00:16:58.479Z,1.75
2023-02-11T00:20:59.980Z,3.30
2023-02-11T00:25:01.423Z,3.92
2023-02-11T00:29:04.700Z,3.05
2023-02-11T00:33:06.410Z,2.85
2023-02-11T00:37:07.919Z,2.78
2023-02-11T00:41:09.350Z,2.88
2023-02-11T00:45:10.843Z,3.00
2023-02-11T00:49:12.333Z,3.00
2023-02-11T00:53:13.839Z,1.85
2023-02-11T00:57:15.277Z,3.00
2023-02-11T01:01:17.562Z,3.35
2023-02-11T01:05:20.053Z,3.45
2023-02-11T01:09:23.122Z,3.03
2023-02-11T01:13:25.754Z,2.63
2023-02-11T01:17:28.833Z,1.58
2023-02-11T01:21:30.590Z,3.40
2023-02-11T01:25:32.102Z,4.18
2023-02-11T01:29:33.599Z,2.70
2023-02-11T01:33:35.322Z,2.28
2023-02-11T01:37:36.877Z,3.60
2023-02-11T01:41:38.649Z,3.80
2023-02-11T01:45:57.109Z,2.70
2023-02-11T01:50:02.194Z,3.35
2023-02-11T01:54:25.772Z,2.80
2023-02-11T01:58:30.072Z,3.55
2023-02-11T02:02:58.518Z,2.47
2023-02-11T02:07:06.580Z,3.40
2023-02-11T02:11:10.863Z,2.67
2023-02-11T02:15:19.669Z,2.60
2023-02-11T02:19:51.905Z,1.95
2023-02-11T02:24:14.703Z,4.13
2023-02-11T02:29:00.411Z,3.40
2023-02-11T02:33:23.698Z,2.50
2023-02-11T02:37:34.445Z,1.30
2023-02-11T02:41:39.281Z,3.65
2023-02-11T02:45:41.034Z,2.10
2023-02-11T02:49:42.559Z,2.50
2023-02-11T02:54:05.768Z,1.92
2023-02-11T02:58:23.773Z,2.95
2023-02-11T03:02:36.294Z,1.27
2023-02-11T03:06:54.817Z,2.78
2023-02-11T03:10:57.285Z,0.88
2023-02-11T03:14:59.769Z,3.00
2023-02-11T03:19:10.933Z,3.70
2023-02-11T03:23:21.536Z,2.78
2023-02-11T03:27:47.498Z,2.70
2023-02-11T03:32:16.141Z,2.30
2023-02-11T03:36:24.057Z,1.75
2023-02-11T03:40:29.536Z,2.20
2023-02-11T03:44:37.353Z,2.83
2023-02-11T03:48:45.809Z,2.63
2023-02-11T03:52:49.809Z,3.00
2023-02-11T03:56:54.430Z,2.42
2023-02-11T04:00:56.028Z,1.90
2023-02-11T04:04:57.769Z,3.42
2023-02-11T04:08:59.183Z,4.88
2023-02-11T04:13:00.759Z,2.50
2023-02-11T04:17:02.670Z,2.70
2023-02-11T04:21:04.246Z,1.95
2023-02-11T04:25:06.461Z,2.70
2023-02-11T04:29:08.065Z,3.70
2023-02-11T04:33:09.543Z,3.08
2023-02-11T04:37:10.981Z,2.17
2023-02-11T04:41:12.443Z,3.08
2023-02-11T04:45:13.966Z,3.38
2023-02-11T04:49:17.155Z,2.30
2023-02-11T04:53:18.643Z,3.03
2023-02-11T04:57:20.081Z,2.08
2023-02-11T05:01:21.576Z,2.58
2023-02-11T05:05:24.386Z,3.08
2023-02-11T05:09:31.501Z,1.98
2023-02-11T05:13:59.538Z,2.03
2023-02-11T05:18:01.764Z,4.07
2023-02-11T05:22:19.901Z,1.35
2023-02-11T05:26:21.710Z,1.85
2023-02-11T05:30:23.271Z,2.03
2023-02-11T05:34:24.852Z,1.38
2023-02-11T05:38:26.839Z,2.38
2023-02-11T05:42:28.385Z,2.15
2023-02-11T05:46:41.838Z,2.05
2023-02-11T05:55:32.091Z,1.88
2023-02-11T05:59:33.666Z,1.73
2023-02-11T06:03:35.922Z,2.45
2023-02-11T06:07:38.449Z,2.17
2023-02-11T06:11:40.279Z,1.80
2023-02-11T06:15:42.586Z,2.15
2023-02-11T06:20:20.481Z,3.20
2023-02-11T06:24:47.734Z,1.90
2023-02-11T06:28:43.821Z,1.98
2023-02-11T06:32:46.210Z,2.70
2023-02-11T06:36:55.758Z,1.70
2023-02-11T06:40:57.619Z,3.03
2023-02-11T06:44:59.229Z,2.60
2023-02-11T06:49:00.799Z,1.83
2023-02-11T06:53:02.350Z,1.58
2023-02-11T06:57:04.033Z,1.60
2023-02-11T07:01:07.785Z,2.72
2023-02-11T07:05:09.950Z,2.53
2023-02-11T07:09:11.895Z,1.25
2023-02-11T07:13:13.534Z,2.78
2023-02-11T07:17:15.050Z,2.50
2023-02-11T07:21:19.894Z,2.17
2023-02-11T07:25:24.123Z,2.30
2023-02-11T07:29:25.869Z,2.05
2023-02-11T07:33:27.497Z,2.92
2023-02-11T07:37:53.386Z,3.20
2023-02-11T07:41:55.135Z,3.38
2023-02-11T07:45:57.849Z,2.75
2023-02-11T07:49:59.424Z,1.63
2023-02-11T07:54:01.306Z,1.85
2023-02-11T07:58:02.845Z,1.90
2023-02-11T08:02:04.386Z,2.00
2023-02-11T08:06:08.808Z,1.27
2023-02-11T08:10:10.532Z,2.08
2023-02-11T08:14:16.420Z,1.88
2023-02-11T08:18:18.099Z,2.08
2023-02-11T08:22:19.621Z,1.90
2023-02-11T08:26:25.419Z,1.60
2023-02-11T08:30:27.654Z,1.73
2023-02-11T08:34:29.156Z,1.98
2023-02-11T08:38:45.805Z,2.55
2023-02-11T08:42:47.532Z,2.15
2023-02-11T08:46:50.293Z,0.73
2023-02-11T08:50:51.785Z,1.17
2023-02-11T08:54:53.337Z,1.10
2023-02-11T08:58:54.865Z,1.40
2023-02-11T09:02:56.359Z,1.33
2023-02-11T09:06:57.980Z,2.17
2023-02-11T09:11:03.126Z,1.75
2023-02-11T09:15:04.963Z,2.15
2023-02-11T09:19:06.448Z,0.95
2023-02-11T09:23:07.886Z,1.67
2023-02-11T09:33:00.465Z,1.42
2023-02-11T09:37:03.522Z,2.30
2023-02-11T09:41:07.619Z,1.55
2023-02-11T09:45:16.568Z,1.10
2023-02-11T09:49:24.721Z,1.00
2023-02-11T09:53:27.500Z,1.23
2023-02-11T09:57:33.970Z,0.82
2023-02-11T10:01:46.103Z,0.70
2023-02-11T10:06:14.784Z,1.42
2023-02-11T10:10:37.796Z,1.52
2023-02-11T10:14:54.570Z,1.05
2023-02-11T10:19:25.043Z,1.13
2023-02-11T10:23:33.017Z,1.42
2023-02-11T10:27:36.085Z,1.40
2023-02-11T10:31:42.237Z,1.35
2023-02-11T10:35:43.897Z,0.75
2023-02-11T10:39:48.476Z,1.85
2023-02-11T10:43:50.906Z,0.60
2023-02-11T10:47:52.373Z,0.80
2023-02-11T10:52:14.132Z,0.60
2023-02-11T10:56:27.715Z,1.20
2023-02-11T11:00:43.510Z,0.80
2023-02-11T11:04:45.865Z,1.13
2023-02-11T11:08:50.166Z,0.50
2023-02-11T11:12:51.723Z,0.85
2023-02-11T11:16:56.445Z,0.65
2023-02-11T11:21:05.645Z,2.17
2023-02-11T11:25:22.196Z,0.50
2023-02-11T11:29:48.112Z,1.23
2023-02-11T11:33:53.510Z,0.93
2023-02-11T11:38:01.917Z,0.32
2023-02-11T11:42:21.821Z,1.00
2023-02-11T11:46:26.984Z,0.30
2023-02-11T11:50:45.725Z,0.63
2023-02-11T11:55:04.797Z,0.30
2023-02-11T11:59:13.456Z,0.50
2023-02-11T12:03:52.275Z,0.52
2023-02-11T12:08:31.200Z,0.95
2023-02-11T12:12:55.386Z,1.05
2023-02-11T12:17:09.016Z,0.80
2023-02-11T12:21:42.887Z,1.02
2023-02-11T12:26:18.880Z,0.30
2023-02-11T12:30:38.388Z,1.15
2023-02-11T12:35:01.378Z,0.73
2023-02-11T12:39:29.486Z,0.50
2023-02-11T12:43:39.551Z,0.20
2023-02-11T12:48:10.525Z,0.82
2023-02-11T12:52:14.674Z,0.85
2023-02-11T12:56:45.225Z,0.52
2023-02-11T13:06:49.015Z,0.47
2023-02-11T13:15:01.875Z,0.63
2023-02-11T13:19:34.364Z,0.47
2023-02-11T13:23:57.877Z,0.57
2023-02-11T13:28:23.148Z,1.10
2023-02-11T13:33:03.164Z,0.77
2023-02-11T13:37:04.806Z,0.43
2023-02-11T13:41:26.061Z,0.40
2023-02-11T13:45:44.560Z,0.80
2023-02-11T13:49:54.296Z,1.00
2023-02-11T13:58:08.444Z,0.30
2023-02-11T14:02:44.515Z,0.93
2023-02-11T14:07:47.338Z,0.93
2023-02-11T14:12:43.716Z,0.30
2023-02-11T14:17:00.889Z,0.40
2023-02-11T14:21:11.768Z,0.90
2023-02-11T14:25:21.878Z,0.75
2023-02-11T14:29:45.703Z,0.55
2023-02-11T14:34:08.047Z,0.30
2023-02-11T14:38:23.890Z,0.40
2023-02-11T14:42:28.967Z,0.65
2023-02-11T14:46:35.416Z,0.30
2023-02-11T14:51:02.896Z,0.80
2023-02-11T14:55:29.011Z,0.30
2023-02-11T14:59:30.438Z,0.38
2023-02-11T15:03:40.110Z,0.52
2023-02-11T15:11:58.601Z,0.50
2023-02-11T15:16:11.516Z,0.30
2023-02-11T15:20:21.980Z,0.47
2023-02-11T15:24:28.190Z,0.45
2023-02-11T15:28:34.895Z,0.52
2023-02-11T15:32:37.070Z,0.63
2023-02-11T15:36:38.639Z,0.65
2023-02-11T15:40:40.199Z,0.50
2023-02-11T15:44:41.665Z,0.30
2023-02-11T15:48:53.793Z,0.70
2023-02-11T15:52:57.411Z,0.20
2023-02-11T15:57:07.379Z,0.43
2023-02-11T16:01:10.088Z,0.70
2023-02-11T16:05:35.700Z,0.30
2023-02-11T16:09:37.226Z,0.40
2023-02-11T16:13:47.203Z,1.20
2023-02-11T16:17:48.777Z,0.45
2023-02-11T16:21:50.844Z,0.50
2023-02-11T16:26:22.988Z,0.40
2023-02-11T16:35:18.720Z,0.45
2023-02-11T16:39:22.772Z,1.55
2023-02-11T16:43:24.383Z,0.80
2023-02-11T16:47:27.981Z,0.40
2023-02-11T16:51:29.410Z,0.25
2023-02-11T16:55:32.470Z,0.30
2023-02-11T16:59:34.132Z,0.30
2023-02-11T17:03:40.396Z,1.13
2023-02-11T17:07:41.829Z,0.95
2023-02-11T17:11:43.296Z,0.57
2023-02-11T17:15:44.759Z,0.47
2023-02-11T17:25:45.562Z,0.60
2023-02-11T17:30:47.883Z,0.75
2023-02-11T17:34:50.167Z,0.57
2023-02-11T17:38:52.016Z,0.32
2023-02-11T17:42:53.455Z,0.65
2023-02-11T17:46:54.942Z,0.75
2023-02-11T17:50:56.419Z,1.05
2023-02-11T17:54:58.076Z,1.30
2023-02-11T17:58:59.614Z,0.77
2023-02-11T18:03:04.117Z,0.43
2023-02-11T18:07:06.103Z,0.95
2023-02-11T18:11:12.716Z,0.60
2023-02-11T18:15:14.148Z,0.85
2023-02-11T18:19:15.599Z,0.20
2023-02-11T18:23:17.134Z,0.68
2023-02-11T18:27:18.752Z,0.60
2023-02-11T18:31:21.884Z,0.52
2023-02-11T18:35:23.716Z,0.82
2023-02-11T18:39:26.368Z,0.50
2023-02-11T18:43:31.667Z,0.52
2023-02-11T18:47:33.256Z,0.80
2023-02-11T18:51:34.733Z,0.95
2023-02-11T18:55:39.913Z,0.47
2023-02-11T18:59:41.330Z,0.52
2023-02-11T19:03:44.260Z,0.63
2023-02-11T19:07:45.739Z,0.55
2023-02-11T19:11:47.273Z,0.77
2023-02-11T19:15:48.752Z,0.63
2023-02-11T19:19:50.354Z,1.58
2023-02-11T19:23:51.823Z,1.08
2023-02-11T19:27:53.355Z,0.35
2023-02-11T19:31:55.304Z,0.60
2023-02-11T19:36:02.780Z,1.13
2023-02-11T19:40:05.253Z,0.20
2023-02-11T19:44:07.780Z,0.45
2023-02-11T19:48:12.789Z,0.55
2023-02-11T19:52:14.284Z,0.95
2023-02-11T19:56:16.036Z,0.55
2023-02-11T20:00:18.061Z,0.80
2023-02-11T20:04:19.798Z,0.60
2023-02-11T20:08:21.223Z,0.63
2023-02-11T20:12:22.635Z,0.65
2023-02-11T20:16:40.745Z,0.50
2023-02-11T20:20:47.963Z,0.50
2023-02-11T20:24:49.485Z,0.73
2023-02-11T20:28:52.344Z,0.68
2023-02-11T20:32:53.802Z,0.50
2023-02-11T20:36:55.915Z,0.45
2023-02-11T20:41:05.960Z,0.30
2023-02-11T20:45:07.833Z,0.22
2023-02-11T20:49:14.485Z,1.20
2023-02-11T20:53:15.926Z,0.82
2023-02-11T20:57:17.498Z,0.77
2023-02-11T21:01:22.330Z,0.73
2023-02-11T21:05:23.778Z,0.77
2023-02-11T21:09:27.980Z,0.50
2023-02-11T21:13:29.525Z,0.60
2023-02-11T21:17:31.986Z,0.60
2023-02-11T21:21:36.175Z,0.60
2023-02-11T21:25:37.611Z,0.80
2023-02-11T21:29:52.752Z,0.63
2023-02-11T21:33:55.983Z,0.43
2023-02-11T21:37:57.442Z,0.73
2023-02-11T21:41:59.145Z,0.73
2023-02-11T21:46:01.042Z,0.77
2023-02-11T21:50:02.498Z,0.55
2023-02-11T21:54:04.288Z,0.60
2023-02-11T21:58:06.710Z,0.30
2023-02-11T22:02:09.569Z,0.57
2023-02-11T22:06:18.009Z,0.38
2023-02-11T22:10:19.542Z,0.55
2023-02-11T22:14:21.001Z,0.85
2023-02-11T22:18:22.438Z,0.35
2023-02-11T22:22:24.183Z,0.70
2023-02-11T22:26:27.707Z,0.95
2023-02-11T22:30:29.120Z,1.08
2023-02-11T22:34:30.633Z,0.80
2023-02-11T22:38:33.961Z,0.63
2023-02-11T22:42:35.410Z,0.70
2023-02-11T22:46:37.521Z,0.38
2023-02-11T22:50:38.950Z,0.65
2023-02-11T22:54:40.380Z,0.45
2023-02-11T22:58:41.870Z,0.88
2023-02-11T23:02:43.455Z,0.80
2023-02-11T23:06:47.525Z,0.38
2023-02-11T23:10:49.389Z,0.60
2023-02-11T23:14:51.234Z,0.80
2023-02-11T23:18:53.151Z,0.70
2023-02-11T23:22:55.056Z,0.60
2023-02-11T23:26:56.462Z,0.47
2023-02-11T23:30:57.904Z,0.45
2023-02-11T23:34:59.451Z,0.93
2023-02-11T23:39:00.943Z,0.80
2023-02-11T23:43:02.452Z,1.15
2023-02-11T23:47:04.656Z,1.00
2023-02-11T23:51:06.716Z,0.63
2023-02-11T23:55:09.429Z,0.82
2023-02-11T23:59:11.553Z,1.30
